Portada
METAR-TAF:

METAR-TAF

Aeroports :

Koumac, Nova Caledònia

latitud: 20-34S, longitud: 164-17E, altitud: 23 m

METAR: manca

Hora: 07:16 (20:16 UTC)

Pronòstic

L'informe es va fer fa 3 hores i 16 minuts, a les 17:00 UTC
Pronòstic vàlid del 17 a les 18 UTC al 18 a les 18 UTC
Vent 2 kt amb direcció variable
Visibilitat 10 km o més
Núvols disperses a una alçada de 5000 ft
Evolucionant progressivament
l' 18 a les 00 UTC al 18 a les 02 UTC
Vent 12 kt del Sud/Sud-Est
Evolucionant progressivament
l' 18 a les 07 UTC al 18 a les 10 UTC
Vent 2 kt amb direcció variable

TAF: NWWK 171700Z 1718/1818 VRB02KT 9999 SCT050 BECMG 1800/1802 16012KT BECMG 1807/1810 VRB02KT

Observacions i pronòstics meteorològics de més de 4000 aeroports (METAR i TAF).

Les estacions disponibles són els punts grocs i vermells al mapa.

Posi el ratolí al punt desitjat per veure el nom de l'estació.

Feu clic per veure les observacions i els pronòstics meteorològics.

Per canviar el mapa: feu clic els botons verds amb una creu de color negre per apropar; al botó verd amb un guió per allunyar la imatge; o en les fletxes verdes per a mapes adjacents.


METAR-TAF: